Overview Statistics Trail Chart Weather Telemetry Raw packets
 

This is the latest recevied weather packets stored in our database for station/object KQ4LLM. If no packets are shown the sender has not sent any weather packets the latest 10 day(s).

<< 88 89 90 91 92 93 94 >>
Time Temp. Humidity Pressure Rain* Wind** Luminosity Snow
1788033739 29.44° C 67% - 0 mm - - -
1788033433 29.44° C 66% - 0 mm - - -
1788033129 29.44° C 68% - 0 mm - - -
1788032824 29.44° C 69% - 0 mm - - -
1788032524 28.33° C 70% - 0 mm - - -
1788032219 28.33° C 71% - 0 mm - - -
1788031916 28.89° C 69% - 0 mm - - -
1788031615 28.89° C 69% - 0 mm - - -
1788031315 28.89° C 70% - 0 mm - - -
1788031014 28.89° C 67% - 0 mm - - -
1788030708 28.89° C 68% - 0 mm - - -
1788030403 28.89° C 69% - 0 mm - - -
1788030099 28.89° C 70% - 0 mm - - -
1788029798 28.89° C 69% - 0 mm - - -
1788029493 28.89° C 70% - 0 mm - - -
1788029206 27.78° C 72% - 0 mm - - -
1788028886 27.78° C 74% - 0 mm - - -
1788028581 27.78° C 73% - 0 mm - - -
1788028276 27.22° C 75% - 0 mm - - -
1788027973 27.78° C 73% - 0 mm - - -
1788027673 28.33° C 72% - 0 mm - - -
1788027367 27.78° C 75% - 0 mm - - -
1788027066 27.22° C 75% - 0 mm - - -
1788026761 26.67° C 76% - 0 mm - - -
1788026457 26.67° C 76% - 0 mm - - -

* Rain latest hour (hover to see other rain measurements)
** Current wind speed in m/s (hover to see current wind gust speed)